sensor_id;sensor_type;location;lat;lon;timestamp;P1;durP1;ratioP1;P2;durP2;ratioP2
47025;SDS011;32783;51.756;-2.556;2023-04-26T00:02:21;1.08;;;0.95;;
47025;SDS011;32783;51.756;-2.556;2023-04-26T00:04:49;1.08;;;0.98;;
47025;SDS011;32783;51.756;-2.556;2023-04-26T00:07:15;1.75;;;1.42;;
47025;SDS011;32783;51.756;-2.556;2023-04-26T00:09:41;1.25;;;1.13;;
47025;SDS011;32783;51.756;-2.556;2023-04-26T00:12:08;3.17;;;1.00;;
47025;SDS011;32783;51.756;-2.556;2023-04-26T00:14:35;2.65;;;1.65;;
47025;SDS011;32783;51.756;-2.556;2023-04-26T00:17:01;1.27;;;1.10;;
47025;SDS011;32783;51.756;-2.556;2023-04-26T00:19:28;1.55;;;1.10;;
47025;SDS011;32783;51.756;-2.556;2023-04-26T00:21:53;2.28;;;1.45;;
47025;SDS011;32783;51.756;-2.556;2023-04-26T00:24:19;1.10;;;1.00;;
47025;SDS011;32783;51.756;-2.556;2023-04-26T00:26:45;1.23;;;1.13;;
47025;SDS011;32783;51.756;-2.556;2023-04-26T00:29:10;1.73;;;1.23;;
47025;SDS011;32783;51.756;-2.556;2023-04-26T00:31:36;1.15;;;1.00;;
47025;SDS011;32783;51.756;-2.556;2023-04-26T00:34:01;1.40;;;1.10;;
47025;SDS011;32783;51.756;-2.556;2023-04-26T00:36:26;1.42;;;1.20;;
47025;SDS011;32783;51.756;-2.556;2023-04-26T00:38:52;1.77;;;1.13;;
47025;SDS011;32783;51.756;-2.556;2023-04-26T00:41:17;1.65;;;1.30;;
47025;SDS011;32783;51.756;-2.556;2023-04-26T00:43:43;2.22;;;1.10;;
47025;SDS011;32783;51.756;-2.556;2023-04-26T00:46:09;1.42;;;0.90;;
47025;SDS011;32783;51.756;-2.556;2023-04-26T00:48:37;1.42;;;1.20;;
47025;SDS011;32783;51.756;-2.556;2023-04-26T00:51:03;1.50;;;1.10;;
47025;SDS011;32783;51.756;-2.556;2023-04-26T00:53:30;1.75;;;1.00;;
47025;SDS011;32783;51.756;-2.556;2023-04-26T00:55:55;1.70;;;1.40;;
47025;SDS011;32783;51.756;-2.556;2023-04-26T00:58:21;1.23;;;1.13;;
47025;SDS011;32783;51.756;-2.556;2023-04-26T01:00:47;1.42;;;1.10;;
47025;SDS011;32783;51.756;-2.556;2023-04-26T01:03:14;1.98;;;1.30;;
47025;SDS011;32783;51.756;-2.556;2023-04-26T01:05:39;1.90;;;1.17;;
47025;SDS011;32783;51.756;-2.556;2023-04-26T01:08:05;1.55;;;1.20;;
47025;SDS011;32783;51.756;-2.556;2023-04-26T01:10:34;1.77;;;1.40;;
47025;SDS011;32783;51.756;-2.556;2023-04-26T01:13:00;2.25;;;1.30;;
47025;SDS011;32783;51.756;-2.556;2023-04-26T01:15:27;1.45;;;1.00;;
47025;SDS011;32783;51.756;-2.556;2023-04-26T01:17:55;1.13;;;1.02;;
47025;SDS011;32783;51.756;-2.556;2023-04-26T01:20:21;1.23;;;1.10;;
47025;SDS011;32783;51.756;-2.556;2023-04-26T01:22:47;1.60;;;1.30;;
47025;SDS011;32783;51.756;-2.556;2023-04-26T01:25:12;1.95;;;1.30;;
47025;SDS011;32783;51.756;-2.556;2023-04-26T01:27:38;1.27;;;1.08;;
47025;SDS011;32783;51.756;-2.556;2023-04-26T01:30:04;1.50;;;1.20;;
47025;SDS011;32783;51.756;-2.556;2023-04-26T01:32:29;1.67;;;1.10;;
47025;SDS011;32783;51.756;-2.556;2023-04-26T01:34:55;2.35;;;1.40;;
47025;SDS011;32783;51.756;-2.556;2023-04-26T01:37:20;1.45;;;1.10;;
47025;SDS011;32783;51.756;-2.556;2023-04-26T01:39:46;1.08;;;0.98;;
47025;SDS011;32783;51.756;-2.556;2023-04-26T01:42:11;1.77;;;1.08;;
47025;SDS011;32783;51.756;-2.556;2023-04-26T01:44:36;1.80;;;1.10;;
47025;SDS011;32783;51.756;-2.556;2023-04-26T01:47:02;1.52;;;0.95;;
47025;SDS011;32783;51.756;-2.556;2023-04-26T01:49:28;0.95;;;0.90;;
47025;SDS011;32783;51.756;-2.556;2023-04-26T01:51:54;2.90;;;1.08;;
47025;SDS011;32783;51.756;-2.556;2023-04-26T01:54:19;1.70;;;1.35;;
47025;SDS011;32783;51.756;-2.556;2023-04-26T01:56:45;1.58;;;1.33;;
47025;SDS011;32783;51.756;-2.556;2023-04-26T01:59:10;1.55;;;1.02;;
47025;SDS011;32783;51.756;-2.556;2023-04-26T02:01:36;1.65;;;1.30;;
47025;SDS011;32783;51.756;-2.556;2023-04-26T02:04:01;1.55;;;1.20;;
47025;SDS011;32783;51.756;-2.556;2023-04-26T02:06:27;2.95;;;1.10;;
47025;SDS011;32783;51.756;-2.556;2023-04-26T02:08:52;1.55;;;1.20;;
47025;SDS011;32783;51.756;-2.556;2023-04-26T02:11:18;1.23;;;1.13;;
47025;SDS011;32783;51.756;-2.556;2023-04-26T02:13:43;2.13;;;1.20;;
47025;SDS011;32783;51.756;-2.556;2023-04-26T02:16:09;1.30;;;1.10;;
47025;SDS011;32783;51.756;-2.556;2023-04-26T02:18:34;1.20;;;1.10;;
47025;SDS011;32783;51.756;-2.556;2023-04-26T02:21:00;1.40;;;1.27;;
47025;SDS011;32783;51.756;-2.556;2023-04-26T02:23:25;1.35;;;1.20;;
47025;SDS011;32783;51.756;-2.556;2023-04-26T02:25:51;2.25;;;1.50;;
47025;SDS011;32783;51.756;-2.556;2023-04-26T02:28:16;1.20;;;0.95;;
47025;SDS011;32783;51.756;-2.556;2023-04-26T02:30:41;1.42;;;1.33;;
47025;SDS011;32783;51.756;-2.556;2023-04-26T02:33:07;1.75;;;1.30;;
47025;SDS011;32783;51.756;-2.556;2023-04-26T02:35:34;1.88;;;1.60;;
47025;SDS011;32783;51.756;-2.556;2023-04-26T02:38:00;1.20;;;0.95;;
47025;SDS011;32783;51.756;-2.556;2023-04-26T02:40:26;1.73;;;1.30;;
47025;SDS011;32783;51.756;-2.556;2023-04-26T02:42:51;1.33;;;1.20;;
47025;SDS011;32783;51.756;-2.556;2023-04-26T02:45:17;1.70;;;1.20;;
47025;SDS011;32783;51.756;-2.556;2023-04-26T02:47:42;1.65;;;1.25;;
47025;SDS011;32783;51.756;-2.556;2023-04-26T02:50:07;1.63;;;1.35;;
47025;SDS011;32783;51.756;-2.556;2023-04-26T02:52:33;2.30;;;1.23;;
47025;SDS011;32783;51.756;-2.556;2023-04-26T02:54:59;1.15;;;1.05;;
47025;SDS011;32783;51.756;-2.556;2023-04-26T02:57:26;1.40;;;1.17;;
47025;SDS011;32783;51.756;-2.556;2023-04-26T02:59:51;1.77;;;1.20;;
47025;SDS011;32783;51.756;-2.556;2023-04-26T03:02:17;1.55;;;1.45;;
47025;SDS011;32783;51.756;-2.556;2023-04-26T03:04:42;1.50;;;1.30;;
47025;SDS011;32783;51.756;-2.556;2023-04-26T03:07:08;1.77;;;1.23;;
47025;SDS011;32783;51.756;-2.556;2023-04-26T03:09:33;1.35;;;1.20;;
47025;SDS011;32783;51.756;-2.556;2023-04-26T03:11:59;1.48;;;1.15;;
47025;SDS011;32783;51.756;-2.556;2023-04-26T03:14:24;2.15;;;1.30;;
47025;SDS011;32783;51.756;-2.556;2023-04-26T03:16:51;1.17;;;1.08;;
47025;SDS011;32783;51.756;-2.556;2023-04-26T03:19:17;1.60;;;1.08;;
47025;SDS011;32783;51.756;-2.556;2023-04-26T03:21:42;2.35;;;1.27;;
47025;SDS011;32783;51.756;-2.556;2023-04-26T03:24:08;1.40;;;1.30;;
47025;SDS011;32783;51.756;-2.556;2023-04-26T03:26:33;2.47;;;1.20;;
47025;SDS011;32783;51.756;-2.556;2023-04-26T03:28:58;1.50;;;1.20;;
47025;SDS011;32783;51.756;-2.556;2023-04-26T03:31:24;1.20;;;1.10;;
47025;SDS011;32783;51.756;-2.556;2023-04-26T03:33:50;1.58;;;1.30;;
47025;SDS011;32783;51.756;-2.556;2023-04-26T03:36:15;1.10;;;1.00;;
47025;SDS011;32783;51.756;-2.556;2023-04-26T03:38:41;3.40;;;1.38;;
47025;SDS011;32783;51.756;-2.556;2023-04-26T03:41:07;1.60;;;1.20;;
47025;SDS011;32783;51.756;-2.556;2023-04-26T03:43:32;1.15;;;1.05;;
47025;SDS011;32783;51.756;-2.556;2023-04-26T03:45:59;2.33;;;1.40;;
47025;SDS011;32783;51.756;-2.556;2023-04-26T03:48:25;1.85;;;1.17;;
47025;SDS011;32783;51.756;-2.556;2023-04-26T03:50:51;1.88;;;1.30;;
47025;SDS011;32783;51.756;-2.556;2023-04-26T03:53:17;1.35;;;1.10;;
47025;SDS011;32783;51.756;-2.556;2023-04-26T03:55:42;1.20;;;1.10;;
47025;SDS011;32783;51.756;-2.556;2023-04-26T03:58:07;1.90;;;1.38;;
47025;SDS011;32783;51.756;-2.556;2023-04-26T04:00:36;1.52;;;1.27;;
47025;SDS011;32783;51.756;-2.556;2023-04-26T04:03:02;1.65;;;1.45;;
47025;SDS011;32783;51.756;-2.556;2023-04-26T04:05:28;1.83;;;1.20;;
47025;SDS011;32783;51.756;-2.556;2023-04-26T04:07:53;2.10;;;1.58;;
47025;SDS011;32783;51.756;-2.556;2023-04-26T04:10:20;1.73;;;1.52;;
47025;SDS011;32783;51.756;-2.556;2023-04-26T04:12:47;1.77;;;1.58;;
47025;SDS011;32783;51.756;-2.556;2023-04-26T04:15:13;2.17;;;1.33;;
47025;SDS011;32783;51.756;-2.556;2023-04-26T04:17:38;1.17;;;1.08;;
47025;SDS011;32783;51.756;-2.556;2023-04-26T04:20:04;1.42;;;1.20;;
47025;SDS011;32783;51.756;-2.556;2023-04-26T04:22:31;1.23;;;1.10;;
47025;SDS011;32783;51.756;-2.556;2023-04-26T04:24:57;1.38;;;1.25;;
47025;SDS011;32783;51.756;-2.556;2023-04-26T04:27:24;1.50;;;1.17;;
47025;SDS011;32783;51.756;-2.556;2023-04-26T04:29:50;2.85;;;1.52;;
47025;SDS011;32783;51.756;-2.556;2023-04-26T04:32:15;1.77;;;1.20;;
47025;SDS011;32783;51.756;-2.556;2023-04-26T04:34:41;1.73;;;1.63;;
47025;SDS011;32783;51.756;-2.556;2023-04-26T04:37:07;2.05;;;1.10;;
47025;SDS011;32783;51.756;-2.556;2023-04-26T04:39:32;2.13;;;1.30;;
47025;SDS011;32783;51.756;-2.556;2023-04-26T04:41:58;1.25;;;1.13;;
47025;SDS011;32783;51.756;-2.556;2023-04-26T04:44:24;1.35;;;1.25;;
47025;SDS011;32783;51.756;-2.556;2023-04-26T04:46:51;1.73;;;1.20;;
47025;SDS011;32783;51.756;-2.556;2023-04-26T04:49:16;1.20;;;1.10;;
47025;SDS011;32783;51.756;-2.556;2023-04-26T04:51:42;1.23;;;1.13;;
47025;SDS011;32783;51.756;-2.556;2023-04-26T04:54:11;1.30;;;1.20;;
47025;SDS011;32783;51.756;-2.556;2023-04-26T04:56:40;1.50;;;1.40;;
47025;SDS011;32783;51.756;-2.556;2023-04-26T04:59:06;1.55;;;1.35;;
47025;SDS011;32783;51.756;-2.556;2023-04-26T05:01:32;1.10;;;1.00;;
47025;SDS011;32783;51.756;-2.556;2023-04-26T05:03:58;1.52;;;1.25;;
47025;SDS011;32783;51.756;-2.556;2023-04-26T05:06:25;1.90;;;1.00;;
47025;SDS011;32783;51.756;-2.556;2023-04-26T05:08:51;1.98;;;1.30;;
47025;SDS011;32783;51.756;-2.556;2023-04-26T05:11:17;1.55;;;1.25;;
47025;SDS011;32783;51.756;-2.556;2023-04-26T05:13:42;1.33;;;1.23;;
47025;SDS011;32783;51.756;-2.556;2023-04-26T05:16:07;1.95;;;1.10;;
47025;SDS011;32783;51.756;-2.556;2023-04-26T05:18:33;1.73;;;1.30;;
47025;SDS011;32783;51.756;-2.556;2023-04-26T05:20:58;1.90;;;1.23;;
47025;SDS011;32783;51.756;-2.556;2023-04-26T05:23:24;1.95;;;1.38;;
47025;SDS011;32783;51.756;-2.556;2023-04-26T05:25:49;1.10;;;1.00;;
47025;SDS011;32783;51.756;-2.556;2023-04-26T05:28:15;1.10;;;1.00;;
47025;SDS011;32783;51.756;-2.556;2023-04-26T05:30:40;1.08;;;0.95;;
47025;SDS011;32783;51.756;-2.556;2023-04-26T05:33:06;1.45;;;1.20;;
47025;SDS011;32783;51.756;-2.556;2023-04-26T05:35:32;2.03;;;1.20;;
47025;SDS011;32783;51.756;-2.556;2023-04-26T05:37:58;1.63;;;1.20;;
47025;SDS011;32783;51.756;-2.556;2023-04-26T05:40:24;1.67;;;1.38;;
47025;SDS011;32783;51.756;-2.556;2023-04-26T05:42:50;2.03;;;1.42;;
47025;SDS011;32783;51.756;-2.556;2023-04-26T05:45:15;1.50;;;1.20;;
47025;SDS011;32783;51.756;-2.556;2023-04-26T05:47:41;1.20;;;1.10;;
47025;SDS011;32783;51.756;-2.556;2023-04-26T05:50:06;1.10;;;1.00;;
47025;SDS011;32783;51.756;-2.556;2023-04-26T05:52:32;1.20;;;1.10;;
47025;SDS011;32783;51.756;-2.556;2023-04-26T05:54:58;1.48;;;1.38;;
47025;SDS011;32783;51.756;-2.556;2023-04-26T05:57:26;1.15;;;0.90;;
47025;SDS011;32783;51.756;-2.556;2023-04-26T05:59:51;1.33;;;1.10;;
47025;SDS011;32783;51.756;-2.556;2023-04-26T06:02:16;2.08;;;1.20;;
47025;SDS011;32783;51.756;-2.556;2023-04-26T06:04:42;1.13;;;1.02;;
47025;SDS011;32783;51.756;-2.556;2023-04-26T06:07:07;1.90;;;1.20;;
47025;SDS011;32783;51.756;-2.556;2023-04-26T06:09:33;1.30;;;1.20;;
47025;SDS011;32783;51.756;-2.556;2023-04-26T06:11:59;1.30;;;1.10;;
47025;SDS011;32783;51.756;-2.556;2023-04-26T06:14:24;1.08;;;0.95;;
47025;SDS011;32783;51.756;-2.556;2023-04-26T06:16:50;2.20;;;1.67;;
47025;SDS011;32783;51.756;-2.556;2023-04-26T06:19:16;1.30;;;1.20;;
47025;SDS011;32783;51.756;-2.556;2023-04-26T06:21:41;1.83;;;1.17;;
47025;SDS011;32783;51.756;-2.556;2023-04-26T06:24:07;1.90;;;1.25;;
47025;SDS011;32783;51.756;-2.556;2023-04-26T06:26:32;3.83;;;1.63;;
47025;SDS011;32783;51.756;-2.556;2023-04-26T06:28:58;3.33;;;1.48;;
47025;SDS011;32783;51.756;-2.556;2023-04-26T06:31:23;2.53;;;1.10;;
47025;SDS011;32783;51.756;-2.556;2023-04-26T06:33:48;2.30;;;1.50;;
47025;SDS011;32783;51.756;-2.556;2023-04-26T06:36:14;2.67;;;1.33;;
47025;SDS011;32783;51.756;-2.556;2023-04-26T06:38:39;3.88;;;1.05;;
47025;SDS011;32783;51.756;-2.556;2023-04-26T06:41:05;1.98;;;1.45;;
47025;SDS011;32783;51.756;-2.556;2023-04-26T06:43:31;1.95;;;1.15;;
47025;SDS011;32783;51.756;-2.556;2023-04-26T06:45:56;1.30;;;0.90;;
47025;SDS011;32783;51.756;-2.556;2023-04-26T06:48:21;1.17;;;0.90;;
47025;SDS011;32783;51.756;-2.556;2023-04-26T06:50:47;1.35;;;1.10;;
47025;SDS011;32783;51.756;-2.556;2023-04-26T06:53:12;1.83;;;1.30;;
47025;SDS011;32783;51.756;-2.556;2023-04-26T06:55:38;1.65;;;1.30;;
47025;SDS011;32783;51.756;-2.556;2023-04-26T06:58:03;1.52;;;1.20;;
47025;SDS011;32783;51.756;-2.556;2023-04-26T07:00:29;1.30;;;1.20;;
47025;SDS011;32783;51.756;-2.556;2023-04-26T07:02:54;1.88;;;1.00;;
47025;SDS011;32783;51.756;-2.556;2023-04-26T07:05:20;1.35;;;1.25;;
47025;SDS011;32783;51.756;-2.556;2023-04-26T07:07:45;2.55;;;1.20;;
47025;SDS011;32783;51.756;-2.556;2023-04-26T07:10:11;2.70;;;1.10;;
47025;SDS011;32783;51.756;-2.556;2023-04-26T07:12:37;2.28;;;1.20;;
47025;SDS011;32783;51.756;-2.556;2023-04-26T07:15:02;1.23;;;1.10;;
47025;SDS011;32783;51.756;-2.556;2023-04-26T07:17:30;2.13;;;1.10;;
47025;SDS011;32783;51.756;-2.556;2023-04-26T07:19:56;2.03;;;1.15;;
47025;SDS011;32783;51.756;-2.556;2023-04-26T07:22:21;1.38;;;1.00;;
47025;SDS011;32783;51.756;-2.556;2023-04-26T07:24:47;1.60;;;1.30;;
47025;SDS011;32783;51.756;-2.556;2023-04-26T07:27:12;1.20;;;1.00;;
47025;SDS011;32783;51.756;-2.556;2023-04-26T07:29:38;2.10;;;1.15;;
47025;SDS011;32783;51.756;-2.556;2023-04-26T07:32:03;2.83;;;1.30;;
47025;SDS011;32783;51.756;-2.556;2023-04-26T07:34:29;2.17;;;1.67;;
47025;SDS011;32783;51.756;-2.556;2023-04-26T07:36:54;3.20;;;1.17;;
47025;SDS011;32783;51.756;-2.556;2023-04-26T07:39:20;3.20;;;1.20;;
47025;SDS011;32783;51.756;-2.556;2023-04-26T07:41:46;3.30;;;1.35;;
47025;SDS011;32783;51.756;-2.556;2023-04-26T07:44:11;3.15;;;1.13;;
47025;SDS011;32783;51.756;-2.556;2023-04-26T07:46:37;2.28;;;1.17;;
47025;SDS011;32783;51.756;-2.556;2023-04-26T07:49:02;2.83;;;1.45;;
47025;SDS011;32783;51.756;-2.556;2023-04-26T07:51:28;3.60;;;1.15;;
47025;SDS011;32783;51.756;-2.556;2023-04-26T07:53:53;1.80;;;1.00;;
47025;SDS011;32783;51.756;-2.556;2023-04-26T07:56:22;1.80;;;1.00;;
47025;SDS011;32783;51.756;-2.556;2023-04-26T07:58:48;2.90;;;1.05;;
47025;SDS011;32783;51.756;-2.556;2023-04-26T08:01:13;2.05;;;1.23;;
47025;SDS011;32783;51.756;-2.556;2023-04-26T08:03:39;7.18;;;1.00;;
47025;SDS011;32783;51.756;-2.556;2023-04-26T08:06:05;2.35;;;1.00;;
47025;SDS011;32783;51.756;-2.556;2023-04-26T08:08:32;3.33;;;1.38;;
47025;SDS011;32783;51.756;-2.556;2023-04-26T08:10:59;1.85;;;1.20;;
47025;SDS011;32783;51.756;-2.556;2023-04-26T08:13:24;4.55;;;1.25;;
47025;SDS011;32783;51.756;-2.556;2023-04-26T08:15:50;4.07;;;0.95;;
47025;SDS011;32783;51.756;-2.556;2023-04-26T08:18:15;3.55;;;1.42;;
47025;SDS011;32783;51.756;-2.556;2023-04-26T08:20:40;5.55;;;1.10;;
47025;SDS011;32783;51.756;-2.556;2023-04-26T08:23:06;3.72;;;1.20;;
47025;SDS011;32783;51.756;-2.556;2023-04-26T08:25:31;4.72;;;1.10;;
47025;SDS011;32783;51.756;-2.556;2023-04-26T08:27:58;2.72;;;0.90;;
47025;SDS011;32783;51.756;-2.556;2023-04-26T08:30:24;4.07;;;1.20;;
47025;SDS011;32783;51.756;-2.556;2023-04-26T08:32:50;5.65;;;1.23;;
47025;SDS011;32783;51.756;-2.556;2023-04-26T08:35:15;5.28;;;1.27;;
47025;SDS011;32783;51.756;-2.556;2023-04-26T08:37:40;7.50;;;1.20;;
47025;SDS011;32783;51.756;-2.556;2023-04-26T08:40:06;6.07;;;1.60;;
47025;SDS011;32783;51.756;-2.556;2023-04-26T08:42:39;4.22;;;0.98;;
47025;SDS011;32783;51.756;-2.556;2023-04-26T08:45:08;2.78;;;1.15;;
47025;SDS011;32783;51.756;-2.556;2023-04-26T08:50:04;3.60;;;1.20;;
47025;SDS011;32783;51.756;-2.556;2023-04-26T08:52:30;2.85;;;1.10;;
47025;SDS011;32783;51.756;-2.556;2023-04-26T08:54:57;4.40;;;1.15;;
47025;SDS011;32783;51.756;-2.556;2023-04-26T08:57:23;2.75;;;1.02;;
47025;SDS011;32783;51.756;-2.556;2023-04-26T08:59:49;4.40;;;1.23;;
47025;SDS011;32783;51.756;-2.556;2023-04-26T09:02:19;4.03;;;1.43;;
47025;SDS011;32783;51.756;-2.556;2023-04-26T09:04:45;2.42;;;1.05;;
47025;SDS011;32783;51.756;-2.556;2023-04-26T09:07:15;3.45;;;1.02;;
47025;SDS011;32783;51.756;-2.556;2023-04-26T09:09:45;2.38;;;0.93;;
47025;SDS011;32783;51.756;-2.556;2023-04-26T09:12:13;2.97;;;1.00;;
47025;SDS011;32783;51.756;-2.556;2023-04-26T09:14:38;3.25;;;1.08;;
47025;SDS011;32783;51.756;-2.556;2023-04-26T09:17:04;2.90;;;1.08;;
47025;SDS011;32783;51.756;-2.556;2023-04-26T09:19:36;3.15;;;1.52;;
47025;SDS011;32783;51.756;-2.556;2023-04-26T09:22:03;2.25;;;1.02;;
47025;SDS011;32783;51.756;-2.556;2023-04-26T09:24:47;1.92;;;1.00;;
47025;SDS011;32783;51.756;-2.556;2023-04-26T09:27:14;3.17;;;1.00;;
47025;SDS011;32783;51.756;-2.556;2023-04-26T09:29:40;3.15;;;0.90;;
47025;SDS011;32783;51.756;-2.556;2023-04-26T09:32:13;3.78;;;1.77;;
47025;SDS011;32783;51.756;-2.556;2023-04-26T09:34:45;4.68;;;1.33;;
47025;SDS011;32783;51.756;-2.556;2023-04-26T09:37:11;3.15;;;1.38;;
47025;SDS011;32783;51.756;-2.556;2023-04-26T09:39:38;2.65;;;0.88;;
47025;SDS011;32783;51.756;-2.556;2023-04-26T09:42:08;2.30;;;0.90;;
47025;SDS011;32783;51.756;-2.556;2023-04-26T09:44:35;3.47;;;1.05;;
47025;SDS011;32783;51.756;-2.556;2023-04-26T09:49:26;5.13;;;1.65;;
47025;SDS011;32783;51.756;-2.556;2023-04-26T09:52:10;2.25;;;1.17;;
47025;SDS011;32783;51.756;-2.556;2023-04-26T09:54:43;3.10;;;1.30;;
47025;SDS011;32783;51.756;-2.556;2023-04-26T09:57:13;2.08;;;1.23;;
47025;SDS011;32783;51.756;-2.556;2023-04-26T09:59:46;3.05;;;0.95;;
47025;SDS011;32783;51.756;-2.556;2023-04-26T10:02:19;4.82;;;1.17;;
47025;SDS011;32783;51.756;-2.556;2023-04-26T10:04:50;2.03;;;1.00;;
47025;SDS011;32783;51.756;-2.556;2023-04-26T10:07:18;4.88;;;1.23;;
47025;SDS011;32783;51.756;-2.556;2023-04-26T10:09:47;2.22;;;1.08;;
47025;SDS011;32783;51.756;-2.556;2023-04-26T10:12:14;2.28;;;1.02;;
47025;SDS011;32783;51.756;-2.556;2023-04-26T10:14:41;2.03;;;0.93;;
47025;SDS011;32783;51.756;-2.556;2023-04-26T10:17:08;3.35;;;1.23;;
47025;SDS011;32783;51.756;-2.556;2023-04-26T10:19:36;2.22;;;1.00;;
47025;SDS011;32783;51.756;-2.556;2023-04-26T10:22:23;3.85;;;1.30;;
47025;SDS011;32783;51.756;-2.556;2023-04-26T10:24:50;4.35;;;1.15;;
47025;SDS011;32783;51.756;-2.556;2023-04-26T10:27:15;1.13;;;0.93;;
47025;SDS011;32783;51.756;-2.556;2023-04-26T10:32:22;1.60;;;0.80;;
47025;SDS011;32783;51.756;-2.556;2023-04-26T10:40:30;4.70;;;1.33;;
47025;SDS011;32783;51.756;-2.556;2023-04-26T10:45:35;5.22;;;1.50;;
47025;SDS011;32783;51.756;-2.556;2023-04-26T10:53:29;2.47;;;1.20;;
47025;SDS011;32783;51.756;-2.556;2023-04-26T10:58:47;3.25;;;1.73;;
47025;SDS011;32783;51.756;-2.556;2023-04-26T11:01:16;3.28;;;1.83;;
47025;SDS011;32783;51.756;-2.556;2023-04-26T11:03:44;3.67;;;1.52;;
47025;SDS011;32783;51.756;-2.556;2023-04-26T11:06:29;4.13;;;1.10;;
47025;SDS011;32783;51.756;-2.556;2023-04-26T11:09:32;6.15;;;1.67;;
47025;SDS011;32783;51.756;-2.556;2023-04-26T11:11:57;9.68;;;1.55;;
47025;SDS011;32783;51.756;-2.556;2023-04-26T11:14:22;7.32;;;2.00;;
47025;SDS011;32783;51.756;-2.556;2023-04-26T11:16:48;7.30;;;1.95;;
47025;SDS011;32783;51.756;-2.556;2023-04-26T11:19:13;11.43;;;3.67;;
47025;SDS011;32783;51.756;-2.556;2023-04-26T11:21:39;7.80;;;3.13;;
47025;SDS011;32783;51.756;-2.556;2023-04-26T11:24:05;8.70;;;3.63;;
47025;SDS011;32783;51.756;-2.556;2023-04-26T11:26:31;15.15;;;4.75;;
47025;SDS011;32783;51.756;-2.556;2023-04-26T11:28:58;13.70;;;5.38;;
47025;SDS011;32783;51.756;-2.556;2023-04-26T11:31:23;14.75;;;5.00;;
47025;SDS011;32783;51.756;-2.556;2023-04-26T11:33:49;11.38;;;4.35;;
47025;SDS011;32783;51.756;-2.556;2023-04-26T11:36:14;18.30;;;4.13;;
47025;SDS011;32783;51.756;-2.556;2023-04-26T11:38:40;7.32;;;3.22;;
47025;SDS011;32783;51.756;-2.556;2023-04-26T11:41:05;9.07;;;4.13;;
47025;SDS011;32783;51.756;-2.556;2023-04-26T11:43:35;8.50;;;3.08;;
47025;SDS011;32783;51.756;-2.556;2023-04-26T11:46:02;9.52;;;2.95;;
47025;SDS011;32783;51.756;-2.556;2023-04-26T11:48:28;7.75;;;2.67;;
47025;SDS011;32783;51.756;-2.556;2023-04-26T11:50:57;13.25;;;3.22;;
47025;SDS011;32783;51.756;-2.556;2023-04-26T11:55:49;6.28;;;3.33;;
47025;SDS011;32783;51.756;-2.556;2023-04-26T11:58:15;14.25;;;4.28;;
47025;SDS011;32783;51.756;-2.556;2023-04-26T12:03:34;16.20;;;5.40;;
47025;SDS011;32783;51.756;-2.556;2023-04-26T12:06:04;17.05;;;5.70;;
47025;SDS011;32783;51.756;-2.556;2023-04-26T12:08:30;18.50;;;6.82;;
47025;SDS011;32783;51.756;-2.556;2023-04-26T12:11:03;18.92;;;5.38;;
47025;SDS011;32783;51.756;-2.556;2023-04-26T12:13:28;10.90;;;5.18;;
47025;SDS011;32783;51.756;-2.556;2023-04-26T12:15:54;14.27;;;5.95;;
47025;SDS011;32783;51.756;-2.556;2023-04-26T12:18:20;12.55;;;5.95;;
47025;SDS011;32783;51.756;-2.556;2023-04-26T12:20:47;10.82;;;3.25;;
47025;SDS011;32783;51.756;-2.556;2023-04-26T12:23:13;8.57;;;3.50;;
47025;SDS011;32783;51.756;-2.556;2023-04-26T12:25:40;7.65;;;3.78;;
47025;SDS011;32783;51.756;-2.556;2023-04-26T12:28:08;8.10;;;3.28;;
47025;SDS011;32783;51.756;-2.556;2023-04-26T12:30:38;9.10;;;3.53;;
47025;SDS011;32783;51.756;-2.556;2023-04-26T12:33:04;7.38;;;3.22;;
47025;SDS011;32783;51.756;-2.556;2023-04-26T12:35:30;6.47;;;3.50;;
47025;SDS011;32783;51.756;-2.556;2023-04-26T12:37:56;10.77;;;3.55;;
47025;SDS011;32783;51.756;-2.556;2023-04-26T12:40:24;8.07;;;3.80;;
47025;SDS011;32783;51.756;-2.556;2023-04-26T12:42:51;7.13;;;3.15;;
47025;SDS011;32783;51.756;-2.556;2023-04-26T12:45:17;8.55;;;3.17;;
47025;SDS011;32783;51.756;-2.556;2023-04-26T12:47:46;7.95;;;3.40;;
47025;SDS011;32783;51.756;-2.556;2023-04-26T12:50:11;7.85;;;3.47;;
47025;SDS011;32783;51.756;-2.556;2023-04-26T12:52:38;9.18;;;3.20;;
47025;SDS011;32783;51.756;-2.556;2023-04-26T12:55:05;6.35;;;3.08;;
47025;SDS011;32783;51.756;-2.556;2023-04-26T12:57:35;9.13;;;2.88;;
47025;SDS011;32783;51.756;-2.556;2023-04-26T13:00:01;5.95;;;2.60;;
47025;SDS011;32783;51.756;-2.556;2023-04-26T13:02:28;5.50;;;2.72;;
47025;SDS011;32783;51.756;-2.556;2023-04-26T13:04:54;7.40;;;3.30;;
47025;SDS011;32783;51.756;-2.556;2023-04-26T13:07:20;4.82;;;2.95;;
47025;SDS011;32783;51.756;-2.556;2023-04-26T13:09:45;5.20;;;2.45;;
47025;SDS011;32783;51.756;-2.556;2023-04-26T13:12:11;5.80;;;2.28;;
47025;SDS011;32783;51.756;-2.556;2023-04-26T13:14:38;5.43;;;2.65;;
47025;SDS011;32783;51.756;-2.556;2023-04-26T13:17:03;4.15;;;2.67;;
47025;SDS011;32783;51.756;-2.556;2023-04-26T13:19:29;4.88;;;2.40;;
47025;SDS011;32783;51.756;-2.556;2023-04-26T13:21:55;4.93;;;2.33;;
47025;SDS011;32783;51.756;-2.556;2023-04-26T13:24:20;6.15;;;2.20;;
47025;SDS011;32783;51.756;-2.556;2023-04-26T13:26:46;6.85;;;3.05;;
47025;SDS011;32783;51.756;-2.556;2023-04-26T13:29:12;3.47;;;1.95;;
47025;SDS011;32783;51.756;-2.556;2023-04-26T13:31:37;5.03;;;2.42;;
47025;SDS011;32783;51.756;-2.556;2023-04-26T13:34:03;6.97;;;2.40;;
47025;SDS011;32783;51.756;-2.556;2023-04-26T13:36:29;5.18;;;3.10;;
47025;SDS011;32783;51.756;-2.556;2023-04-26T13:38:56;4.43;;;2.35;;
47025;SDS011;32783;51.756;-2.556;2023-04-26T13:41:21;5.22;;;1.98;;
47025;SDS011;32783;51.756;-2.556;2023-04-26T13:43:47;3.78;;;1.80;;
47025;SDS011;32783;51.756;-2.556;2023-04-26T13:46:13;3.55;;;1.60;;
47025;SDS011;32783;51.756;-2.556;2023-04-26T13:48:39;10.00;;;3.10;;
47025;SDS011;32783;51.756;-2.556;2023-04-26T13:51:05;3.90;;;2.00;;
47025;SDS011;32783;51.756;-2.556;2023-04-26T13:53:30;3.60;;;2.10;;
47025;SDS011;32783;51.756;-2.556;2023-04-26T13:55:56;6.53;;;2.22;;
47025;SDS011;32783;51.756;-2.556;2023-04-26T13:58:21;5.20;;;2.38;;
47025;SDS011;32783;51.756;-2.556;2023-04-26T14:00:47;7.63;;;2.33;;
47025;SDS011;32783;51.756;-2.556;2023-04-26T14:03:12;7.43;;;1.90;;
47025;SDS011;32783;51.756;-2.556;2023-04-26T14:05:38;6.15;;;2.33;;
47025;SDS011;32783;51.756;-2.556;2023-04-26T14:08:03;6.22;;;2.45;;
47025;SDS011;32783;51.756;-2.556;2023-04-26T14:10:29;7.63;;;2.42;;
47025;SDS011;32783;51.756;-2.556;2023-04-26T14:12:54;6.60;;;2.17;;
47025;SDS011;32783;51.756;-2.556;2023-04-26T14:15:20;5.05;;;1.75;;
47025;SDS011;32783;51.756;-2.556;2023-04-26T14:17:46;5.28;;;1.95;;
47025;SDS011;32783;51.756;-2.556;2023-04-26T14:20:12;3.85;;;1.85;;
47025;SDS011;32783;51.756;-2.556;2023-04-26T14:22:38;5.70;;;1.85;;
47025;SDS011;32783;51.756;-2.556;2023-04-26T14:25:03;5.53;;;1.80;;
47025;SDS011;32783;51.756;-2.556;2023-04-26T14:27:29;3.50;;;1.73;;
47025;SDS011;32783;51.756;-2.556;2023-04-26T14:29:55;5.43;;;1.90;;
47025;SDS011;32783;51.756;-2.556;2023-04-26T14:32:20;4.75;;;1.98;;
47025;SDS011;32783;51.756;-2.556;2023-04-26T14:34:45;5.38;;;2.30;;
47025;SDS011;32783;51.756;-2.556;2023-04-26T14:37:11;4.20;;;1.75;;
47025;SDS011;32783;51.756;-2.556;2023-04-26T14:39:36;2.70;;;1.60;;
47025;SDS011;32783;51.756;-2.556;2023-04-26T14:42:02;8.60;;;1.80;;
47025;SDS011;32783;51.756;-2.556;2023-04-26T14:44:28;5.18;;;1.95;;
47025;SDS011;32783;51.756;-2.556;2023-04-26T14:46:53;2.50;;;1.50;;
47025;SDS011;32783;51.756;-2.556;2023-04-26T14:49:19;5.03;;;1.63;;
47025;SDS011;32783;51.756;-2.556;2023-04-26T14:51:44;2.83;;;1.40;;
47025;SDS011;32783;51.756;-2.556;2023-04-26T14:54:10;2.95;;;1.30;;
47025;SDS011;32783;51.756;-2.556;2023-04-26T14:56:35;3.20;;;1.80;;
47025;SDS011;32783;51.756;-2.556;2023-04-26T14:59:01;2.05;;;1.48;;